createdAt,value
2022-07-28T00:00:11.732Z,57.4
2022-07-28T00:02:39.984Z,57.4
2022-07-28T00:07:36.519Z,57.5
2022-07-28T00:10:04.772Z,57.2
2022-07-28T00:12:33.000Z,57.6
2022-07-28T00:15:01.311Z,57.6
2022-07-28T00:17:29.510Z,57.7
2022-07-28T00:19:57.795Z,57.9
2022-07-28T00:22:26.022Z,58.1
2022-07-28T00:24:54.347Z,58.5
2022-07-28T00:27:22.551Z,58.5
2022-07-28T00:29:50.842Z,58.9
2022-07-28T00:31:07.467Z,58.8
2022-07-28T00:32:19.127Z,59.1
2022-07-28T00:34:47.330Z,59
2022-07-28T00:37:15.605Z,58.9
2022-07-28T00:39:43.894Z,59.1
2022-07-28T00:47:08.640Z,59.6
2022-07-28T00:49:36.877Z,59.7
2022-07-28T00:54:33.452Z,59.8
2022-07-28T00:55:50.059Z,60.1
2022-07-28T00:57:01.670Z,60.2
2022-07-28T01:01:58.231Z,60.2
2022-07-28T01:04:26.482Z,60.3
2022-07-28T01:06:54.725Z,60.1
2022-07-28T01:14:19.493Z,60.2
2022-07-28T01:16:47.733Z,60.2
2022-07-28T01:19:15.969Z,60.3
2022-07-28T01:20:32.675Z,60.3
2022-07-28T01:21:44.244Z,60.2
2022-07-28T01:39:02.069Z,61
2022-07-28T01:43:58.617Z,61.1
2022-07-28T01:45:15.227Z,61.5
2022-07-28T01:48:55.099Z,61.1
2022-07-28T01:51:23.365Z,61.6
2022-07-28T01:53:51.605Z,62
2022-07-28T01:56:19.857Z,61.6
2022-07-28T01:58:48.123Z,61.6
2022-07-28T02:01:16.380Z,61.4
2022-07-28T02:08:41.191Z,62
2022-07-28T02:11:09.477Z,62.4
2022-07-28T02:13:37.719Z,62.2
2022-07-28T02:16:05.963Z,62.5
2022-07-28T02:21:02.476Z,62.6
2022-07-28T02:23:30.708Z,62.9
2022-07-28T02:25:58.961Z,62.9
2022-07-28T02:28:27.236Z,63
2022-07-28T02:30:55.474Z,63.2
2022-07-28T02:33:23.770Z,63.3
2022-07-28T02:34:40.448Z,63.3
2022-07-28T02:35:52.044Z,63.4
2022-07-28T02:38:20.312Z,63.6
2022-07-28T02:40:48.572Z,63.8
2022-07-28T02:43:16.820Z,63.6
2022-07-28T02:45:45.032Z,63.7
2022-07-28T02:50:41.588Z,63.4
2022-07-28T02:53:09.811Z,63.5
2022-07-28T02:55:38.096Z,63.8
2022-07-28T02:59:23.047Z,64
2022-07-28T03:00:34.591Z,64
2022-07-28T03:03:02.872Z,64.1
2022-07-28T03:05:31.126Z,64.1
2022-07-28T03:07:59.404Z,64.1
2022-07-28T03:10:27.656Z,64.5
2022-07-28T03:20:20.660Z,63.9
2022-07-28T03:22:48.955Z,64.1
2022-07-28T03:24:05.611Z,64.8
2022-07-28T03:25:17.185Z,64.6
2022-07-28T03:30:13.711Z,64.7
2022-07-28T03:35:10.223Z,64.7
2022-07-28T03:37:38.529Z,64.9
2022-07-28T03:40:06.787Z,65.4
2022-07-28T03:42:35.033Z,65.4
2022-07-28T03:45:03.257Z,65.4
2022-07-28T03:48:48.153Z,66.2
2022-07-28T03:49:59.811Z,65.9
2022-07-28T03:52:28.081Z,65.9
2022-07-28T03:59:52.845Z,66.2
2022-07-28T04:02:21.071Z,66.3
2022-07-28T04:04:49.365Z,66.5
2022-07-28T04:07:17.591Z,65.9
2022-07-28T04:12:14.135Z,66.7
2022-07-28T04:14:42.386Z,66.9
2022-07-28T04:17:10.667Z,66.5
2022-07-28T04:19:38.861Z,66.5
2022-07-28T04:22:07.184Z,66.4
2022-07-28T04:27:03.634Z,66.4
2022-07-28T04:29:31.888Z,66.2
2022-07-28T04:32:00.212Z,66.2
2022-07-28T04:34:28.438Z,66.4
2022-07-28T04:36:56.718Z,66.5
2022-07-28T04:38:13.365Z,66.6
2022-07-28T04:44:21.464Z,66.5
2022-07-28T04:46:49.716Z,67
2022-07-28T04:49:18.035Z,66.8
2022-07-28T04:51:46.280Z,66
2022-07-28T04:54:14.517Z,65.8
2022-07-28T04:59:11.059Z,65.8
2022-07-28T05:02:55.957Z,66.2
2022-07-28T05:06:35.809Z,67.2
2022-07-28T05:09:04.093Z,67.2
2022-07-28T05:14:00.603Z,66.6
2022-07-28T05:18:57.102Z,66.5
2022-07-28T05:26:21.883Z,65.9
2022-07-28T05:27:38.544Z,65.1
2022-07-28T05:28:50.106Z,65.4
2022-07-28T05:36:14.904Z,66.3
2022-07-28T05:38:43.210Z,66.2
2022-07-28T05:43:39.700Z,67.5
2022-07-28T05:46:07.979Z,66.9
2022-07-28T05:48:36.193Z,66.2
2022-07-28T05:51:04.427Z,66.5
2022-07-28T05:52:21.115Z,66.7
2022-07-28T05:53:32.748Z,66.8
2022-07-28T05:56:01.015Z,67.2
2022-07-28T05:58:29.247Z,66.7
2022-07-28T06:03:25.787Z,66.7
2022-07-28T06:05:53.986Z,65.8
2022-07-28T06:08:22.267Z,66.5
2022-07-28T06:10:50.515Z,65.8
2022-07-28T06:13:18.807Z,65.4
2022-07-28T06:15:47.070Z,65.2
2022-07-28T06:18:15.357Z,65.4
2022-07-28T06:20:43.576Z,65.6
2022-07-28T06:23:11.870Z,65.3
2022-07-28T06:25:40.074Z,65.2
2022-07-28T06:28:08.328Z,63.5
2022-07-28T06:33:04.857Z,63.9
2022-07-28T06:35:33.126Z,63.5
2022-07-28T06:38:01.348Z,63.8
2022-07-28T06:40:29.661Z,64.7
2022-07-28T06:41:46.283Z,65.7
2022-07-28T06:42:57.934Z,65
2022-07-28T06:45:26.126Z,65.1
2022-07-28T06:47:54.388Z,64.9
2022-07-28T06:50:22.669Z,64.1
2022-07-28T06:52:50.959Z,64.6
2022-07-28T06:57:47.480Z,65.2
2022-07-28T07:00:15.683Z,63.9
2022-07-28T07:06:28.894Z,63
2022-07-28T07:07:40.485Z,62.8
2022-07-28T07:10:08.782Z,62.6
2022-07-28T07:15:05.255Z,62.3
2022-07-28T07:17:33.534Z,62.5
2022-07-28T07:22:30.048Z,62.7
2022-07-28T07:24:58.268Z,62.3
2022-07-28T07:27:26.533Z,61.9
2022-07-28T07:29:54.814Z,62.1
2022-07-28T07:31:11.488Z,62
2022-07-28T07:32:23.095Z,62.2
2022-07-28T07:34:51.333Z,62.7
2022-07-28T07:37:19.609Z,61.1
2022-07-28T07:39:47.855Z,61.1
2022-07-28T07:42:16.100Z,61
2022-07-28T07:49:40.882Z,61.3
2022-07-28T07:54:37.430Z,61.7
2022-07-28T07:55:54.083Z,61.7
2022-07-28T07:57:05.659Z,60.9
2022-07-28T08:02:02.190Z,60.8
2022-07-28T08:04:30.408Z,60.9
2022-07-28T08:09:26.923Z,59.6
2022-07-28T08:11:55.177Z,60.6
2022-07-28T08:14:23.527Z,60.5
2022-07-28T08:16:51.700Z,58.9
2022-07-28T08:19:20.019Z,59.3
2022-07-28T08:29:13.063Z,59.3
2022-07-28T08:31:41.255Z,58.5
2022-07-28T08:34:09.521Z,58.2
2022-07-28T08:39:06.085Z,59
2022-07-28T08:41:34.320Z,58.2
2022-07-28T08:44:02.566Z,59.2
2022-07-28T08:45:19.249Z,59.1
2022-07-28T08:46:30.865Z,57
2022-07-28T08:48:59.066Z,56.5
2022-07-28T08:51:27.378Z,57.5
2022-07-28T08:53:55.599Z,57
2022-07-28T08:56:23.843Z,57.2
2022-07-28T09:03:48.679Z,56.5
2022-07-28T09:08:45.161Z,55
2022-07-28T09:10:01.800Z,54.4
2022-07-28T09:11:13.409Z,53.5
2022-07-28T09:16:09.919Z,54.6
2022-07-28T09:18:38.234Z,53.9
2022-07-28T09:21:06.432Z,53.2
2022-07-28T09:26:02.960Z,53.7
2022-07-28T09:30:59.474Z,51.6
2022-07-28T09:33:27.769Z,51.2
2022-07-28T09:34:44.449Z,51
2022-07-28T09:40:52.527Z,49.7
2022-07-28T09:43:20.810Z,49
2022-07-28T09:48:17.313Z,48.5
2022-07-28T09:50:45.563Z,49
2022-07-28T09:53:13.834Z,47.7
2022-07-28T09:55:42.111Z,47.3
2022-07-28T09:58:10.387Z,47.3
2022-07-28T10:00:38.660Z,46.1
2022-07-28T10:03:06.913Z,46.3
2022-07-28T10:08:03.386Z,45.3
2022-07-28T10:10:31.690Z,44.4
2022-07-28T10:12:59.909Z,43.8
2022-07-28T10:17:56.474Z,42.3
2022-07-28T10:22:52.976Z,42.4
2022-07-28T10:27:49.515Z,42.9
2022-07-28T10:30:17.743Z,41
2022-07-28T10:32:45.982Z,40.5
2022-07-28T10:37:42.502Z,38.3
2022-07-28T10:40:10.767Z,37.1
2022-07-28T10:42:39.010Z,34.9
2022-07-28T10:45:07.269Z,33.3
2022-07-28T10:47:35.559Z,33.1
2022-07-28T10:48:52.250Z,33
2022-07-28T10:50:03.855Z,31.4
2022-07-28T10:52:32.090Z,31.8
2022-07-28T10:55:00.364Z,31.3
2022-07-28T10:57:28.607Z,32
2022-07-28T10:59:56.822Z,30.5
2022-07-28T11:02:25.102Z,30.3
2022-07-28T11:04:53.367Z,31.7
2022-07-28T11:07:21.617Z,32.3
2022-07-28T11:12:18.157Z,30
2022-07-28T11:13:34.829Z,32.1
2022-07-28T11:14:46.443Z,31.1
2022-07-28T11:17:14.708Z,31.5
2022-07-28T11:22:11.177Z,30.6
2022-07-28T11:24:39.426Z,32.9
2022-07-28T11:27:07.683Z,31.3
2022-07-28T11:29:35.931Z,32.8
2022-07-28T11:32:04.182Z,32.4
2022-07-28T11:34:32.469Z,32.2
2022-07-28T11:37:00.732Z,32.4
2022-07-28T11:38:17.400Z,31.7
2022-07-28T11:39:29.032Z,34.1
2022-07-28T11:46:53.763Z,34.5
2022-07-28T11:49:22.023Z,31.6
2022-07-28T11:51:50.309Z,35
2022-07-28T11:54:18.570Z,33.8
2022-07-28T11:56:46.843Z,33.3
2022-07-28T11:59:15.067Z,32.3
2022-07-28T12:01:43.339Z,31.4
2022-07-28T12:02:59.955Z,33.2
2022-07-28T12:04:11.582Z,33
2022-07-28T12:06:39.864Z,32.2
2022-07-28T12:09:08.104Z,31.7
2022-07-28T12:11:36.387Z,32.6
2022-07-28T12:14:04.591Z,32
2022-07-28T12:19:01.148Z,31.7
2022-07-28T12:21:29.352Z,31
2022-07-28T12:23:57.628Z,31.6
2022-07-28T12:26:25.904Z,31.9
2022-07-28T12:28:54.158Z,32.7
2022-07-28T12:31:22.418Z,31.7
2022-07-28T12:33:50.667Z,32.3
2022-07-28T12:36:18.985Z,32.9
2022-07-28T12:38:47.220Z,35.3
2022-07-28T12:41:15.488Z,34.2
2022-07-28T12:43:43.710Z,35.3
2022-07-28T12:46:11.999Z,36.8
2022-07-28T12:51:08.501Z,37.8
2022-07-28T12:52:25.128Z,39.1
2022-07-28T12:53:36.800Z,35.8
2022-07-28T12:56:05.039Z,35.9
2022-07-28T13:03:29.814Z,37.5
2022-07-28T13:05:58.076Z,37.7
2022-07-28T13:08:26.311Z,38.1
2022-07-28T13:10:54.543Z,39
2022-07-28T13:13:22.818Z,37.2
2022-07-28T13:15:51.086Z,37
2022-07-28T13:17:07.762Z,35.8
2022-07-28T13:18:19.367Z,35.3
2022-07-28T13:23:15.878Z,36
2022-07-28T13:25:44.146Z,36.8
2022-07-28T13:28:12.375Z,36.6
2022-07-28T13:30:40.615Z,37.4
2022-07-28T13:35:37.151Z,38.3
2022-07-28T13:38:05.388Z,37.3
2022-07-28T13:41:50.305Z,37.6
2022-07-28T13:43:01.927Z,38.6
2022-07-28T13:45:30.207Z,39.1
2022-07-28T13:47:58.420Z,39.7
2022-07-28T13:50:26.683Z,38
2022-07-28T13:52:54.981Z,38.2
2022-07-28T13:55:23.204Z,38
2022-07-28T13:57:51.506Z,39.3
2022-07-28T14:00:19.707Z,40.2
2022-07-28T14:05:16.276Z,39.1
2022-07-28T14:06:32.924Z,38.8
2022-07-28T14:07:44.555Z,39.1
2022-07-28T14:10:12.794Z,40
2022-07-28T14:15:09.267Z,38.8
2022-07-28T14:17:37.533Z,38.5
2022-07-28T14:22:34.067Z,37.4
2022-07-28T14:25:02.330Z,38.7
2022-07-28T14:27:30.577Z,38.9
2022-07-28T14:29:58.871Z,37.6
2022-07-28T14:32:27.143Z,37.6
2022-07-28T14:34:55.402Z,39.6
2022-07-28T14:37:23.649Z,42.9
2022-07-28T14:39:51.870Z,45.1
2022-07-28T14:44:48.418Z,39.1
2022-07-28T14:47:16.671Z,38.7
2022-07-28T14:52:13.174Z,37.6
2022-07-28T14:54:41.445Z,38.2
2022-07-28T14:55:58.117Z,38.4
2022-07-28T14:57:09.682Z,38.7
2022-07-28T14:59:37.948Z,38.7
2022-07-28T15:02:06.227Z,38.1
2022-07-28T15:07:02.740Z,39.8
2022-07-28T15:09:31.022Z,38.6
2022-07-28T15:11:59.243Z,39.1
2022-07-28T15:14:27.492Z,38.2
2022-07-28T15:16:55.731Z,39.2
2022-07-28T15:19:24.055Z,38
2022-07-28T15:20:40.672Z,39.2
2022-07-28T15:21:52.320Z,39.8
2022-07-28T15:24:20.565Z,40.7
2022-07-28T15:26:48.840Z,38.6
2022-07-28T15:29:17.051Z,39.3
2022-07-28T15:31:45.343Z,40.2
2022-07-28T15:34:13.606Z,37.8
2022-07-28T15:36:41.846Z,38.5
2022-07-28T15:39:10.074Z,38.8
2022-07-28T15:41:38.368Z,40
2022-07-28T15:44:06.620Z,39.9
2022-07-28T15:45:23.276Z,38
2022-07-28T15:46:34.897Z,39.3
2022-07-28T15:49:03.180Z,39
2022-07-28T15:51:31.441Z,39.3
2022-07-28T15:53:59.677Z,41
2022-07-28T15:56:27.944Z,40.6
2022-07-28T15:58:56.221Z,39.8
2022-07-28T16:01:24.471Z,41.3
2022-07-28T16:03:52.698Z,40.2
2022-07-28T16:06:20.946Z,40.4
2022-07-28T16:08:49.194Z,41.8
2022-07-28T16:10:05.843Z,42.6
2022-07-28T16:11:17.469Z,42.5
2022-07-28T16:13:45.766Z,42.8
2022-07-28T16:16:14.029Z,43
2022-07-28T16:18:42.279Z,43.1
2022-07-28T16:21:10.510Z,43.4
2022-07-28T16:28:35.293Z,44
2022-07-28T16:31:03.566Z,45.1
2022-07-28T16:33:31.822Z,45.2
2022-07-28T16:38:28.345Z,44.5
2022-07-28T16:43:24.818Z,45.2
2022-07-28T16:48:21.378Z,44.6
2022-07-28T16:50:49.645Z,43.9
2022-07-28T16:53:17.897Z,44.4
2022-07-28T16:55:46.138Z,44.4
2022-07-28T16:58:14.428Z,44.2
2022-07-28T16:59:31.083Z,44.5
2022-07-28T17:00:42.672Z,44.5
2022-07-28T17:03:10.903Z,44.7
2022-07-28T17:08:07.418Z,44.9
2022-07-28T17:10:35.735Z,45.1
2022-07-28T17:13:03.960Z,45
2022-07-28T17:18:00.481Z,45.2
2022-07-28T17:20:28.708Z,46.2
2022-07-28T17:22:56.986Z,45.3
2022-07-28T17:24:13.652Z,45.3
2022-07-28T17:25:25.274Z,45.4
2022-07-28T17:27:53.492Z,46.1
2022-07-28T17:30:21.775Z,45.5
2022-07-28T17:35:18.320Z,45.4
2022-07-28T17:37:46.546Z,45.6
2022-07-28T17:40:14.800Z,45.7
2022-07-28T17:42:43.106Z,45.2
2022-07-28T17:45:11.332Z,45.1
2022-07-28T17:47:39.630Z,45.4
2022-07-28T17:48:56.243Z,45.3
2022-07-28T17:50:07.897Z,45.8
2022-07-28T17:55:04.449Z,45.7
2022-07-28T17:57:32.677Z,45.7
2022-07-28T18:02:29.150Z,46.1
2022-07-28T18:07:25.709Z,46
2022-07-28T18:09:53.941Z,45.9
2022-07-28T18:12:22.238Z,46.4
2022-07-28T18:13:38.886Z,45.9
2022-07-28T18:14:50.480Z,46.1
2022-07-28T18:17:18.760Z,45.8
2022-07-28T18:19:46.977Z,46
2022-07-28T18:22:15.289Z,46.3
2022-07-28T18:29:40.033Z,46.5
2022-07-28T18:34:36.550Z,46.5
2022-07-28T18:37:04.790Z,46.7
2022-07-28T18:39:33.063Z,46.6
2022-07-28T18:42:01.359Z,46.4
2022-07-28T18:44:29.562Z,46.6
2022-07-28T18:54:22.640Z,47
2022-07-28T18:56:50.849Z,47.6
2022-07-28T19:03:04.034Z,47.5
2022-07-28T19:04:15.623Z,47.4
2022-07-28T19:06:43.913Z,47.2
2022-07-28T19:09:12.202Z,46.8
2022-07-28T19:11:40.407Z,47
2022-07-28T19:16:36.927Z,47.4
2022-07-28T19:19:05.210Z,47.4
2022-07-28T19:21:33.434Z,47.6
2022-07-28T19:24:01.697Z,47.2
2022-07-28T19:26:29.952Z,47.6
2022-07-28T19:27:46.635Z,47
2022-07-28T19:31:26.482Z,47
2022-07-28T19:33:54.799Z,47
2022-07-28T19:38:51.250Z,47.1
2022-07-28T19:41:19.552Z,46.9
2022-07-28T19:46:16.035Z,47.1
2022-07-28T19:48:44.312Z,47.1
2022-07-28T19:51:12.549Z,47.4
2022-07-28T19:52:29.248Z,47.1
2022-07-28T20:01:05.616Z,47.6
2022-07-28T20:03:33.921Z,47.6
2022-07-28T20:08:30.376Z,48.2
2022-07-28T20:10:58.631Z,47.6
2022-07-28T20:15:55.188Z,48
2022-07-28T20:17:11.807Z,48.1
2022-07-28T20:18:23.480Z,48
2022-07-28T20:20:51.734Z,48.3
2022-07-28T20:23:19.941Z,48.2
2022-07-28T20:25:48.193Z,48.5
2022-07-28T20:28:16.494Z,48
2022-07-28T20:30:44.763Z,48.1
2022-07-28T20:33:12.991Z,48.7
2022-07-28T20:35:41.286Z,48.6
2022-07-28T20:38:09.530Z,48.7
2022-07-28T20:40:37.749Z,48.5
2022-07-28T20:43:06.050Z,48.9
2022-07-28T20:45:34.308Z,49
2022-07-28T20:48:02.536Z,49.3
2022-07-28T20:50:30.856Z,49.6
2022-07-28T20:55:27.326Z,49.4
2022-07-28T20:57:55.584Z,49.4
2022-07-28T21:00:23.821Z,49.2
2022-07-28T21:02:52.098Z,49.3
2022-07-28T21:05:20.367Z,49.8
2022-07-28T21:06:37.062Z,50
2022-07-28T21:07:48.665Z,50.5
2022-07-28T21:10:16.903Z,50.6
2022-07-28T21:12:45.187Z,51.1
2022-07-28T21:15:13.409Z,50.7
2022-07-28T21:17:41.680Z,49.9
2022-07-28T21:22:38.182Z,49.7
2022-07-28T21:25:06.435Z,50.6
2022-07-28T21:27:34.692Z,50.3
2022-07-28T21:30:02.992Z,49.6
2022-07-28T21:31:19.669Z,49.6
2022-07-28T21:32:31.266Z,49.6
2022-07-28T21:34:59.506Z,49.7
2022-07-28T21:37:27.774Z,50
2022-07-28T21:39:56.041Z,51
2022-07-28T21:42:24.276Z,50.6
2022-07-28T21:44:52.545Z,50.5
2022-07-28T21:47:20.755Z,51.2
2022-07-28T21:49:49.041Z,51.9
2022-07-28T21:52:17.301Z,50.9
2022-07-28T21:54:45.593Z,51.8
2022-07-28T21:56:02.256Z,52.1
2022-07-28T21:57:13.816Z,52.1
2022-07-28T21:59:42.114Z,51.7
2022-07-28T22:09:35.145Z,52.7
2022-07-28T22:12:03.367Z,52.6
2022-07-28T22:14:31.642Z,53.3
2022-07-28T22:16:59.894Z,52.9
2022-07-28T22:19:28.128Z,52.6
2022-07-28T22:20:44.811Z,52.8
2022-07-28T22:21:56.398Z,52.6
2022-07-28T22:24:24.655Z,53
2022-07-28T22:31:49.496Z,53.4
2022-07-28T22:34:17.687Z,53.1
2022-07-28T22:39:14.241Z,52.7
2022-07-28T22:44:10.748Z,53.4
2022-07-28T22:46:39.017Z,53.5
2022-07-28T22:49:07.295Z,54.1
2022-07-28T22:54:03.778Z,53.2
2022-07-28T22:56:32.026Z,53.1
2022-07-28T22:59:00.329Z,53.8
2022-07-28T23:01:28.571Z,53.8
2022-07-28T23:06:25.111Z,53.6
2022-07-28T23:08:53.369Z,53.2
2022-07-28T23:10:10.017Z,53.5
2022-07-28T23:11:21.614Z,53.4
2022-07-28T23:13:49.862Z,52.5
2022-07-28T23:16:18.111Z,54.1
2022-07-28T23:21:14.683Z,53.5
2022-07-28T23:23:42.909Z,53.4
2022-07-28T23:26:11.159Z,54.6
2022-07-28T23:28:39.408Z,53.4
2022-07-28T23:31:07.727Z,53.7
2022-07-28T23:34:52.587Z,54.3
2022-07-28T23:38:32.456Z,53.8
2022-07-28T23:41:00.761Z,54.5
2022-07-28T23:43:28.961Z,55.3
2022-07-28T23:50:53.736Z,55.1
2022-07-28T23:58:18.512Z,54.6
2022-07-28T23:59:35.233Z,55.7
